チューリッヒ の空港の天気 - METARとTAF

チューリヒ国際空港 ( LSZH / ZRH ) - スイス チューリッヒ
飛行場実況気象(Metar)
観測時間08/05 00:20 CEST (08/04 22:20 UTC)
風向・風速北西 3m/s
視程10km以上
天気現象
なし
気温11℃
湿度100%
気圧1019hPa
METARLSZH 042220Z 31006KT CAVOK 11/11 Q1019 NOSIG
過去の天気等 Google飛行場航空写真 Wunderground天気予報

過去48時間のMETAR

飛行場予報(TAF)
発表時間: 8/04 22:25 CEST (8/04 20:25 UTC)
予報対象時間: 4日23時 CEST ~ 6日5時 CEST
風向・風速不定 2m/s
視程10km以上
少しの雲 雲底高度 1980m
4日23時 CEST ~ 5日1時 CEST に徐々に
視程10km以上
なし
5日0時 CEST ~ 5日3時 CEST に徐々に
視程4000m
天気現象もや
なし
5日2時 CEST ~ 5日5時 CEST に徐々に
視程2500m
天気現象散在した霧
全天の4割程度の雲 雲底高度 60m
5日2時 CEST ~ 5日8時 CEST に一時的に
視程700m
天気現象部分霧
全天の8割程度の雲 雲底高度 60m
5日7時 CEST ~ 5日9時 CEST に徐々に
視程4000m
全天の8割程度の雲 雲底高度 150m
5日9時 CEST ~ 5日11時 CEST に徐々に
風向・風速北東 4m/s
視程10km以上
なし
5日13時 CEST ~ 5日17時 CEST に一時的に
風向・風速北東 6m/s
視程10km以上
少しの雲 雲底高度 1520m
5日20時 CEST ~ 5日22時 CEST に徐々に
風向・風速不定 2m/s
TAF LSZH 042025Z 0421/0603 VRB03KT 9999 FEW065 TX23/0515Z TN09/0504Z
BECMG 0421/0423 CAVOK
BECMG 0422/0501 4000 BR NSC
BECMG 0500/0503 2500 BCFG SCT002
TEMPO 0500/0506 0700 PRFG BKN002
BECMG 0505/0507 4000 BKN005
BECMG 0507/0509 05008KT CAVOK
TEMPO 0511/0515 05012KT 9999 FEW050
BECMG 0518/0520 VRB03KT